createdAt,value
2023-01-28T00:00:54.059Z,98911.02
2023-01-28T00:03:25.583Z,98906.31
2023-01-28T00:06:02.662Z,98909.50
2023-01-28T00:08:30.270Z,98911.84
2023-01-28T00:11:02.349Z,98910.16
2023-01-28T00:13:31.759Z,98904.80
2023-01-28T00:16:02.776Z,98903.27
2023-01-28T00:18:31.769Z,98905.27
2023-01-28T00:21:18.111Z,98909.31
2023-01-28T00:23:51.879Z,98912.67
2023-01-28T00:26:20.373Z,98913.67
2023-01-28T00:28:48.271Z,98915.02
2023-01-28T00:31:18.898Z,98916.86
2023-01-28T00:33:48.585Z,98915.52
2023-01-28T00:36:17.938Z,98920.05
2023-01-28T00:38:50.676Z,98920.89
2023-01-28T00:41:20.060Z,98917.86
2023-01-28T00:43:49.351Z,98914.85
2023-01-28T00:46:17.405Z,98914.67
2023-01-28T00:48:45.993Z,98916.53
2023-01-28T00:51:16.118Z,98915.20
2023-01-28T00:53:44.368Z,98914.85
2023-01-28T00:56:17.803Z,98919.21
2023-01-28T00:58:45.695Z,98918.04
2023-01-28T01:01:19.421Z,98920.23
2023-01-28T01:03:48.203Z,98918.21
2023-01-28T01:06:16.510Z,98922.23
2023-01-28T01:08:44.100Z,98923.24
2023-01-28T01:11:11.859Z,98922.06
2023-01-28T01:13:39.447Z,98926.10
2023-01-28T01:16:10.857Z,98919.55
2023-01-28T01:18:39.510Z,98922.23
2023-01-28T01:21:12.469Z,98924.41
2023-01-28T01:23:40.863Z,98929.79
2023-01-28T01:26:08.509Z,98930.95
2023-01-28T01:28:37.223Z,98932.13
2023-01-28T01:31:08.662Z,98933.14
2023-01-28T01:33:36.521Z,98935.14
2023-01-28T01:36:04.258Z,98937.65
2023-01-28T01:38:31.876Z,98939.33
2023-01-28T01:41:00.460Z,98941.34
2023-01-28T01:43:49.707Z,98946.38
2023-01-28T01:46:25.665Z,98946.00
2023-01-28T01:48:54.682Z,98944.67
2023-01-28T01:51:27.850Z,98945.83
2023-01-28T01:53:57.970Z,98945.67
2023-01-28T01:56:29.868Z,98949.36
2023-01-28T01:58:58.053Z,98952.19
2023-01-28T02:01:28.997Z,98951.52
2023-01-28T02:04:08.996Z,98951.19
2023-01-28T02:06:37.776Z,98951.02
2023-01-28T02:09:31.725Z,98955.21
2023-01-28T02:12:03.892Z,98956.89
2023-01-28T02:14:35.779Z,98955.38
2023-01-28T02:17:04.299Z,98953.53
2023-01-28T02:19:42.810Z,98947.34
2023-01-28T02:22:19.406Z,98946.16
2023-01-28T02:25:08.981Z,98937.60
2023-01-28T02:27:55.054Z,98943.64
2023-01-28T02:30:29.532Z,98940.95
2023-01-28T02:33:07.920Z,98945.63
2023-01-28T02:35:40.268Z,98946.30
2023-01-28T02:38:10.958Z,98947.97
2023-01-28T02:40:42.056Z,98943.94
2023-01-28T02:43:09.903Z,98944.44
2023-01-28T02:45:37.669Z,98949.79
2023-01-28T02:48:05.447Z,98947.78
2023-01-28T02:50:50.057Z,98952.14
2023-01-28T02:53:32.155Z,98953.15
2023-01-28T02:56:12.136Z,98949.79
2023-01-28T02:58:52.531Z,98953.31
2023-01-28T03:01:39.018Z,98953.48
2023-01-28T03:04:12.698Z,98953.31
2023-01-28T03:06:45.611Z,98956.69
2023-01-28T03:09:15.395Z,98953.66
2023-01-28T03:11:48.243Z,98954.32
2023-01-28T03:14:19.250Z,98953.32
2023-01-28T03:16:47.830Z,98957.52
2023-01-28T03:19:17.554Z,98956.00
2023-01-28T03:21:46.845Z,98955.85
2023-01-28T03:24:21.540Z,98954.84
2023-01-28T03:27:13.605Z,98953.82
2023-01-28T03:29:43.911Z,98955.65
2023-01-28T03:32:13.162Z,98958.67
2023-01-28T03:34:41.101Z,98959.17
2023-01-28T03:37:09.097Z,98959.16
2023-01-28T03:39:37.971Z,98960.17
2023-01-28T03:42:11.208Z,98962.52
2023-01-28T03:44:38.955Z,98963.69
2023-01-28T03:47:06.529Z,98961.35
2023-01-28T03:49:34.250Z,98957.63
2023-01-28T03:52:02.050Z,98958.96
2023-01-28T03:54:29.644Z,98959.78
2023-01-28T03:56:57.308Z,98956.09
2023-01-28T03:59:24.845Z,98958.27
2023-01-28T04:01:52.430Z,98956.09
2023-01-28T04:04:20.056Z,98953.56
2023-01-28T04:06:47.709Z,98956.24
2023-01-28T04:09:15.378Z,98956.24
2023-01-28T04:11:43.057Z,98958.76
2023-01-28T04:14:10.632Z,98956.08
2023-01-28T04:16:38.203Z,98957.59
2023-01-28T04:19:06.317Z,98958.25
2023-01-28T04:21:33.900Z,98954.90
2023-01-28T04:24:01.639Z,98958.24
2023-01-28T04:26:29.329Z,98954.07
2023-01-28T04:28:56.984Z,98951.71
2023-01-28T04:31:24.740Z,98957.58
2023-01-28T04:33:52.460Z,98962.95
2023-01-28T04:36:20.016Z,98962.27
2023-01-28T04:38:47.691Z,98969.14
2023-01-28T04:41:15.572Z,98971.14
2023-01-28T04:43:44.319Z,98970.30
2023-01-28T04:46:13.481Z,98972.84
2023-01-28T04:48:41.185Z,98970.31
2023-01-28T04:51:08.869Z,98968.63
2023-01-28T04:53:36.455Z,98976.54
2023-01-28T04:56:04.303Z,98972.67
2023-01-28T04:58:32.005Z,98976.85
2023-01-28T05:01:00.324Z,98980.35
2023-01-28T05:03:27.929Z,98980.85
2023-01-28T05:05:55.587Z,98984.54
2023-01-28T05:08:23.326Z,98984.88
2023-01-28T05:10:50.877Z,98972.80
2023-01-28T05:13:18.428Z,98972.13
2023-01-28T05:15:51.380Z,98976.30
2023-01-28T05:18:19.002Z,98977.63
2023-01-28T05:20:47.330Z,98978.41
2023-01-28T05:23:14.998Z,98978.92
2023-01-28T05:25:42.646Z,98979.90
2023-01-28T05:28:10.288Z,98986.60
2023-01-28T05:30:39.028Z,98991.59
2023-01-28T05:33:06.830Z,98995.10
2023-01-28T05:35:34.625Z,98997.45
2023-01-28T05:38:02.535Z,98995.60
2023-01-28T05:40:30.164Z,99001.78
2023-01-28T05:42:57.759Z,99005.79
2023-01-28T05:45:25.429Z,99006.10
2023-01-28T05:47:53.126Z,99006.27
2023-01-28T05:50:20.858Z,99011.30
2023-01-28T05:52:48.554Z,99010.97
2023-01-28T05:55:16.237Z,99019.88
2023-01-28T05:57:43.777Z,99020.72
2023-01-28T06:00:12.234Z,99024.07
2023-01-28T06:02:39.812Z,99026.77
2023-01-28T06:05:08.258Z,99031.80
2023-01-28T06:07:36.133Z,99034.32
2023-01-28T06:10:04.193Z,99042.54
2023-01-28T06:12:31.728Z,99043.72
2023-01-28T06:14:59.370Z,99048.77
2023-01-28T06:17:26.994Z,99054.33
2023-01-28T06:19:54.693Z,99047.80
2023-01-28T06:22:22.593Z,99052.17
2023-01-28T06:24:50.141Z,99055.18
2023-01-28T06:27:17.854Z,99057.73
2023-01-28T06:29:45.422Z,99061.78
2023-01-28T06:32:13.150Z,99062.46
2023-01-28T06:34:40.992Z,99062.97
2023-01-28T06:37:08.560Z,99067.34
2023-01-28T06:39:36.261Z,99071.37
2023-01-28T06:42:03.865Z,99073.55
2023-01-28T06:44:31.649Z,99070.56
2023-01-28T06:46:59.380Z,99076.10
2023-01-28T06:49:26.915Z,99074.44
2023-01-28T06:51:54.556Z,99076.95
2023-01-28T06:54:22.077Z,99081.33
2023-01-28T06:56:49.830Z,99084.52
2023-01-28T06:59:17.419Z,99084.70
2023-01-28T07:01:45.044Z,99085.73
2023-01-28T07:04:12.640Z,99085.08
2023-01-28T07:06:40.350Z,99084.08
2023-01-28T07:09:08.055Z,99093.83
2023-01-28T07:11:35.894Z,99091.52
2023-01-28T07:14:03.647Z,99093.38
2023-01-28T07:16:31.281Z,99095.13
2023-01-28T07:18:59.062Z,99095.35
2023-01-28T07:21:26.633Z,99096.23
2023-01-28T07:23:54.241Z,99100.14
2023-01-28T07:26:24.654Z,99100.70
2023-01-28T07:28:52.263Z,99103.77
2023-01-28T07:31:19.948Z,99103.49
2023-01-28T07:33:47.869Z,99103.55
2023-01-28T07:36:15.553Z,99106.30
2023-01-28T07:38:43.281Z,99107.04
2023-01-28T07:41:10.869Z,99102.07
2023-01-28T07:43:38.489Z,99102.13
2023-01-28T07:46:06.241Z,99103.05
2023-01-28T07:48:33.800Z,99105.45
2023-01-28T07:51:01.490Z,99104.95
2023-01-28T07:53:29.212Z,99105.51
2023-01-28T07:56:02.973Z,99106.38
2023-01-28T07:58:30.907Z,99108.27
2023-01-28T08:00:59.314Z,99109.30
2023-01-28T08:03:28.163Z,99108.83
2023-01-28T08:05:56.800Z,99111.23
2023-01-28T08:08:26.261Z,99114.64
2023-01-28T08:10:54.099Z,99117.04
2023-01-28T08:13:21.821Z,99121.92
2023-01-28T08:15:49.474Z,99121.91
2023-01-28T08:18:17.496Z,99124.46
2023-01-28T08:20:45.219Z,99125.80
2023-01-28T08:23:17.371Z,99126.50
2023-01-28T08:25:46.292Z,99126.51
2023-01-28T08:28:16.178Z,99127.85
2023-01-28T08:30:44.483Z,99129.20
2023-01-28T08:33:14.756Z,99130.58
2023-01-28T08:35:42.517Z,99129.58
2023-01-28T08:38:12.636Z,99128.91
2023-01-28T08:40:40.446Z,99130.22
2023-01-28T08:43:08.060Z,99132.43
2023-01-28T08:45:35.983Z,99133.44
2023-01-28T08:48:06.180Z,99137.50
2023-01-28T08:50:38.904Z,99138.70
2023-01-28T08:53:10.968Z,99141.06
2023-01-28T08:55:38.517Z,99142.60
2023-01-28T08:58:08.307Z,99144.15
2023-01-28T09:00:35.994Z,99144.04
2023-01-28T09:03:06.120Z,99140.89
2023-01-28T09:05:35.019Z,99141.77
2023-01-28T09:08:08.897Z,99141.82
2023-01-28T09:10:37.193Z,99151.23
2023-01-28T09:13:06.997Z,99147.02
2023-01-28T09:15:35.536Z,99144.70
2023-01-28T09:18:03.894Z,99148.27
2023-01-28T09:20:31.720Z,99148.44
2023-01-28T09:23:00.871Z,99147.42
2023-01-28T09:25:28.750Z,99150.81
2023-01-28T09:27:57.537Z,99151.67
2023-01-28T09:30:25.866Z,99152.89
2023-01-28T09:32:55.160Z,99153.70
2023-01-28T09:35:23.001Z,99158.06
2023-01-28T09:37:51.144Z,99155.52
2023-01-28T09:40:29.112Z,99157.06
2023-01-28T09:43:02.298Z,99159.28
2023-01-28T09:45:44.538Z,99162.46
2023-01-28T09:48:16.457Z,99164.94
2023-01-28T09:50:47.781Z,99162.56
2023-01-28T09:53:23.275Z,99161.02
2023-01-28T09:55:56.649Z,99160.49
2023-01-28T09:58:24.360Z,99153.22
2023-01-28T10:01:10.318Z,99155.88
2023-01-28T10:03:51.615Z,99150.17
2023-01-28T10:06:23.835Z,99147.35
2023-01-28T10:09:15.274Z,99149.91
2023-01-28T10:12:01.344Z,99147.60
2023-01-28T10:14:55.238Z,99147.14
2023-01-28T10:17:37.047Z,99143.27
2023-01-28T10:20:19.699Z,99139.62
2023-01-28T10:23:10.703Z,99137.80
2023-01-28T10:25:41.835Z,99141.20
2023-01-28T10:28:19.048Z,99142.23
2023-01-28T10:30:47.760Z,99144.13
2023-01-28T10:33:27.802Z,99145.13
2023-01-28T10:35:56.614Z,99145.48
2023-01-28T10:38:26.849Z,99145.16
2023-01-28T10:41:00.296Z,99146.67
2023-01-28T10:43:32.318Z,99145.50
2023-01-28T10:46:32.315Z,99144.97
2023-01-28T10:49:22.764Z,99145.80
2023-01-28T10:51:50.453Z,99146.65
2023-01-28T10:54:24.046Z,99142.09
2023-01-28T10:57:03.524Z,99144.15
2023-01-28T10:59:34.161Z,99144.52
2023-01-28T11:02:05.215Z,99142.82
2023-01-28T11:04:35.701Z,99145.63
2023-01-28T11:07:17.917Z,99144.05
2023-01-28T11:09:48.400Z,99139.52
2023-01-28T11:12:24.777Z,99139.04
2023-01-28T11:15:00.930Z,99136.86
2023-01-28T11:17:32.225Z,99134.49
2023-01-28T11:20:11.893Z,99134.34
2023-01-28T11:22:42.998Z,99136.20
2023-01-28T11:25:33.883Z,99135.50
2023-01-28T11:28:05.305Z,99136.17
2023-01-28T11:30:36.037Z,99133.46
2023-01-28T11:33:12.410Z,99134.83
2023-01-28T11:35:39.979Z,99134.33
2023-01-28T11:38:19.906Z,99129.48
2023-01-28T11:40:55.980Z,99129.68
2023-01-28T11:43:26.303Z,99130.86
2023-01-28T11:46:35.499Z,99129.17
2023-01-28T11:49:14.848Z,99128.64
2023-01-28T11:52:22.955Z,99126.95
2023-01-28T11:55:08.777Z,99127.63
2023-01-28T11:57:55.315Z,99121.77
2023-01-28T12:00:49.937Z,99124.64
2023-01-28T12:03:38.936Z,99123.29
2023-01-28T12:06:21.748Z,99120.59
2023-01-28T12:09:07.332Z,99124.29
2023-01-28T12:11:48.243Z,99127.48
2023-01-28T12:14:48.201Z,99124.46
2023-01-28T12:17:40.402Z,99121.10
2023-01-28T12:20:46.597Z,99119.95
2023-01-28T12:23:21.129Z,99113.56
2023-01-28T12:25:58.078Z,99110.58
2023-01-28T12:28:52.462Z,99113.98
2023-01-28T12:31:41.644Z,99118.19
2023-01-28T12:34:31.898Z,99116.00
2023-01-28T12:37:38.566Z,99114.98
2023-01-28T12:40:33.780Z,99109.06
2023-01-28T12:43:08.706Z,99112.73
2023-01-28T12:45:43.594Z,99114.36
2023-01-28T12:48:29.382Z,99115.52
2023-01-28T12:51:22.117Z,99118.36
2023-01-28T12:53:55.691Z,99123.55
2023-01-28T12:56:32.043Z,99123.86
2023-01-28T12:59:27.790Z,99125.05
2023-01-28T13:02:13.704Z,99127.40
2023-01-28T13:04:54.202Z,99127.23
2023-01-28T13:07:30.787Z,99128.58
2023-01-28T13:10:12.854Z,99126.71
2023-01-28T13:12:41.789Z,99128.04
2023-01-28T13:15:15.784Z,99130.71
2023-01-28T13:18:01.487Z,99129.52
2023-01-28T13:20:35.391Z,99137.27
2023-01-28T13:23:05.986Z,99138.77
2023-01-28T13:25:47.719Z,99141.79
2023-01-28T13:28:28.125Z,99147.81
2023-01-28T13:31:10.824Z,99148.31
2023-01-28T13:33:41.744Z,99144.75
2023-01-28T13:36:28.329Z,99143.39
2023-01-28T13:39:06.758Z,99145.24
2023-01-28T13:41:50.735Z,99145.08
2023-01-28T13:44:19.609Z,99153.48
2023-01-28T13:46:47.573Z,99152.11
2023-01-28T13:49:21.227Z,99157.81
2023-01-28T13:52:01.417Z,99156.94
2023-01-28T13:54:30.907Z,99153.72
2023-01-28T13:57:01.279Z,99160.58
2023-01-28T13:59:28.853Z,99157.52
2023-01-28T14:02:03.871Z,99157.14
2023-01-28T14:05:02.046Z,99158.44
2023-01-28T14:07:40.809Z,99152.85
2023-01-28T14:10:25.164Z,99154.67
2023-01-28T14:13:23.895Z,99159.71
2023-01-28T14:16:12.085Z,99159.20
2023-01-28T14:18:43.824Z,99159.86
2023-01-28T14:21:15.182Z,99160.52
2023-01-28T14:23:54.956Z,99159.80
2023-01-28T14:26:39.671Z,99164.14
2023-01-28T14:29:15.276Z,99165.81
2023-01-28T14:31:43.245Z,99163.10
2023-01-28T14:34:22.372Z,99162.38
2023-01-28T14:36:53.017Z,99158.66
2023-01-28T14:39:26.391Z,99159.99
2023-01-28T14:41:58.380Z,99162.34
2023-01-28T14:44:34.567Z,99164.02
2023-01-28T14:47:28.314Z,99163.48
2023-01-28T14:50:34.927Z,99170.86
2023-01-28T14:53:27.318Z,99175.22
2023-01-28T14:56:13.540Z,99177.91
2023-01-28T14:58:56.982Z,99179.55
2023-01-28T15:01:30.410Z,99185.73
2023-01-28T15:03:58.238Z,99189.25
2023-01-28T15:06:34.675Z,99190.27
2023-01-28T15:09:08.340Z,99191.44
2023-01-28T15:11:39.364Z,99191.27
2023-01-28T15:14:16.313Z,99193.79
2023-01-28T15:16:48.706Z,99193.28
2023-01-28T15:19:18.114Z,99197.14
2023-01-28T15:21:46.290Z,99196.98
2023-01-28T15:24:17.171Z,99200.17
2023-01-28T15:26:47.479Z,99198.83
2023-01-28T15:29:32.374Z,99207.05
2023-01-28T15:32:00.659Z,99211.91
2023-01-28T15:34:28.589Z,99210.04
2023-01-28T15:36:57.816Z,99213.72
2023-01-28T15:39:27.136Z,99218.74
2023-01-28T15:41:54.657Z,99218.91
2023-01-28T15:44:30.295Z,99219.75
2023-01-28T15:47:03.885Z,99221.43
2023-01-28T15:49:35.520Z,99224.96
2023-01-28T15:52:03.936Z,99231.66
2023-01-28T15:54:31.727Z,99234.85
2023-01-28T15:57:28.876Z,99234.81
2023-01-28T16:00:15.100Z,99233.80
2023-01-28T16:02:44.988Z,99239.16
2023-01-28T16:05:32.992Z,99241.69
2023-01-28T16:08:07.475Z,99243.86
2023-01-28T16:10:35.473Z,99246.04
2023-01-28T16:13:16.526Z,99241.68
2023-01-28T16:15:50.218Z,99242.52
2023-01-28T16:18:37.687Z,99239.84
2023-01-28T16:21:10.427Z,99243.86
2023-01-28T16:23:39.750Z,99244.52
2023-01-28T16:26:22.229Z,99243.84
2023-01-28T16:28:50.013Z,99241.98
2023-01-28T16:31:18.267Z,99246.17
2023-01-28T16:33:46.190Z,99242.13
2023-01-28T16:36:16.668Z,99243.63
2023-01-28T16:38:44.218Z,99246.48
2023-01-28T16:41:29.312Z,99244.13
2023-01-28T16:43:57.021Z,99248.48
2023-01-28T16:46:27.172Z,99248.46
2023-01-28T16:48:54.846Z,99249.60
2023-01-28T16:51:23.306Z,99247.74
2023-01-28T16:53:51.206Z,99248.92
2023-01-28T16:56:44.124Z,99252.44
2023-01-28T16:59:11.383Z,99252.77
2023-01-28T17:01:44.526Z,99247.73
2023-01-28T17:04:13.156Z,99252.77
2023-01-28T17:06:43.399Z,99258.66
2023-01-28T17:09:12.656Z,99258.83
2023-01-28T17:11:40.745Z,99257.98
2023-01-28T17:14:10.174Z,99258.83
2023-01-28T17:16:38.486Z,99258.84
2023-01-28T17:19:06.612Z,99257.15
2023-01-28T17:21:34.365Z,99254.64
2023-01-28T17:24:02.111Z,99256.48
2023-01-28T17:26:29.729Z,99256.48
2023-01-28T17:28:57.458Z,99261.52
2023-01-28T17:31:25.257Z,99266.06
2023-01-28T17:33:54.928Z,99265.90
2023-01-28T17:36:24.387Z,99265.55
2023-01-28T17:38:52.450Z,99272.45
2023-01-28T17:41:20.951Z,99272.27
2023-01-28T17:43:52.870Z,99272.31
2023-01-28T17:46:22.850Z,99276.19
2023-01-28T17:48:50.535Z,99275.86
2023-01-28T17:51:18.315Z,99282.73
2023-01-28T17:53:51.066Z,99281.75
2023-01-28T17:56:21.265Z,99286.63
2023-01-28T17:58:50.662Z,99288.80
2023-01-28T18:01:19.380Z,99292.65
2023-01-28T18:03:47.051Z,99292.97
2023-01-28T18:06:14.834Z,99296.13
2023-01-28T18:08:42.872Z,99295.75
2023-01-28T18:11:12.153Z,99300.77
2023-01-28T18:13:40.942Z,99300.91
2023-01-28T18:16:12.364Z,99294.35
2023-01-28T18:18:41.300Z,99294.69
2023-01-28T18:21:22.402Z,99298.23
2023-01-28T18:23:51.605Z,99300.95
2023-01-28T18:26:19.153Z,99301.79
2023-01-28T18:28:46.748Z,99302.47
2023-01-28T18:31:14.468Z,99301.63
2023-01-28T18:33:42.922Z,99299.45
2023-01-28T18:36:10.822Z,99298.10
2023-01-28T18:38:38.705Z,99300.93
2023-01-28T18:41:06.387Z,99297.89
2023-01-28T18:43:34.652Z,99294.34
2023-01-28T18:46:10.306Z,99295.67
2023-01-28T18:48:38.075Z,99299.85
2023-01-28T18:51:05.971Z,99302.98
2023-01-28T18:53:34.625Z,99300.63
2023-01-28T18:56:04.632Z,99301.73
2023-01-28T18:58:33.169Z,99304.88
2023-01-28T19:01:07.407Z,99311.72
2023-01-28T19:03:35.794Z,99313.89
2023-01-28T19:06:08.606Z,99313.05
2023-01-28T19:08:36.762Z,99311.87
2023-01-28T19:11:04.647Z,99313.23
2023-01-28T19:13:32.396Z,99310.38
2023-01-28T19:16:03.721Z,99313.05
2023-01-28T19:18:31.820Z,99317.25
2023-01-28T19:21:06.430Z,99317.28
2023-01-28T19:23:48.883Z,99319.31
2023-01-28T19:26:17.380Z,99322.86
2023-01-28T19:28:45.129Z,99318.84
2023-01-28T19:31:12.793Z,99317.17
2023-01-28T19:33:40.527Z,99320.87
2023-01-28T19:36:08.524Z,99324.73
2023-01-28T19:38:36.269Z,99321.04
2023-01-28T19:41:05.508Z,99320.02
2023-01-28T19:43:34.062Z,99321.70
2023-01-28T19:46:04.308Z,99323.05
2023-01-28T19:48:32.830Z,99325.56
2023-01-28T19:51:09.352Z,99330.11
2023-01-28T19:53:39.525Z,99329.30
2023-01-28T19:56:10.933Z,99330.79
2023-01-28T19:58:41.421Z,99328.61
2023-01-28T20:01:29.829Z,99331.83
2023-01-28T20:03:59.784Z,99330.16
2023-01-28T20:06:30.166Z,99338.55
2023-01-28T20:09:03.779Z,99341.92
2023-01-28T20:11:31.714Z,99345.63
2023-01-28T20:13:59.433Z,99343.94
2023-01-28T20:16:32.311Z,99341.39
2023-01-28T20:19:02.705Z,99338.50
2023-01-28T20:21:31.551Z,99342.66
2023-01-28T20:24:01.714Z,99341.30
2023-01-28T20:26:31.802Z,99343.80
2023-01-28T20:29:21.520Z,99340.58
2023-01-28T20:32:01.113Z,99344.09
2023-01-28T20:34:37.013Z,99348.77
2023-01-28T20:37:04.597Z,99347.55
2023-01-28T20:39:32.226Z,99350.23
2023-01-28T20:42:00.162Z,99351.73
2023-01-28T20:44:28.583Z,99350.88
2023-01-28T20:46:57.348Z,99353.05
2023-01-28T20:49:28.057Z,99355.23
2023-01-28T20:51:56.267Z,99355.06
2023-01-28T20:54:24.558Z,99351.87
2023-01-28T20:56:52.923Z,99353.03
2023-01-28T20:59:20.693Z,99355.88
2023-01-28T21:01:48.593Z,99362.91
2023-01-28T21:04:16.486Z,99358.40
2023-01-28T21:06:44.082Z,99351.98
2023-01-28T21:09:11.709Z,99343.72
2023-01-28T21:11:39.274Z,99349.09
2023-01-28T21:14:07.022Z,99353.62
2023-01-28T21:16:34.730Z,99359.33
2023-01-28T21:19:02.432Z,99358.64
2023-01-28T21:21:30.323Z,99367.00
2023-01-28T21:24:01.353Z,99368.30
2023-01-28T21:26:29.380Z,99374.84
2023-01-28T21:28:57.315Z,99379.68
2023-01-28T21:31:26.549Z,99384.67
2023-01-28T21:34:00.360Z,99384.67
2023-01-28T21:36:28.228Z,99389.52
2023-01-28T21:38:58.685Z,99390.18
2023-01-28T21:41:27.672Z,99397.23
2023-01-28T21:43:56.429Z,99392.70
2023-01-28T21:46:27.201Z,99397.40
2023-01-28T21:49:03.304Z,99401.75
2023-01-28T21:51:31.461Z,99402.27
2023-01-28T21:53:59.274Z,99397.58
2023-01-28T21:56:27.088Z,99393.05
2023-01-28T21:58:54.707Z,99392.20
2023-01-28T22:01:23.524Z,99392.36
2023-01-28T22:03:51.181Z,99394.39
2023-01-28T22:06:18.973Z,99394.55
2023-01-28T22:08:46.583Z,99394.88
2023-01-28T22:11:14.134Z,99398.73
2023-01-28T22:13:41.678Z,99393.52
2023-01-28T22:16:09.532Z,99386.63
2023-01-28T22:18:37.358Z,99388.45
2023-01-28T22:21:08.114Z,99388.92
2023-01-28T22:23:35.666Z,99386.05
2023-01-28T22:26:03.361Z,99382.86
2023-01-28T22:28:31.058Z,99385.69
2023-01-28T22:31:07.775Z,99387.85
2023-01-28T22:33:35.705Z,99387.31
2023-01-28T22:36:14.895Z,99393.34
2023-01-28T22:38:44.316Z,99400.15
2023-01-28T22:41:14.882Z,99406.81
2023-01-28T22:43:42.465Z,99413.33
2023-01-28T22:46:10.289Z,99408.56
2023-01-28T22:48:39.102Z,99408.71
2023-01-28T22:51:21.816Z,99413.40
2023-01-28T22:53:51.601Z,99414.08
2023-01-28T22:56:22.960Z,99414.07
2023-01-28T22:59:01.772Z,99409.20
2023-01-28T23:01:30.388Z,99407.52
2023-01-28T23:03:58.389Z,99409.52
2023-01-28T23:06:28.062Z,99411.98
2023-01-28T23:08:56.698Z,99409.77
2023-01-28T23:11:24.721Z,99407.25
2023-01-28T23:13:54.516Z,99404.90
2023-01-28T23:16:22.013Z,99400.03
2023-01-28T23:18:50.233Z,99397.83
2023-01-28T23:21:19.743Z,99399.30
2023-01-28T23:23:47.379Z,99398.43
2023-01-28T23:26:15.039Z,99396.92
2023-01-28T23:28:42.831Z,99395.92
2023-01-28T23:31:10.664Z,99392.78
2023-01-28T23:33:38.359Z,99390.96
2023-01-28T23:36:06.172Z,99380.36
2023-01-28T23:38:33.982Z,99381.48
2023-01-28T23:41:01.544Z,99383.14
2023-01-28T23:43:29.162Z,99378.71
2023-01-28T23:45:56.932Z,99379.19
2023-01-28T23:48:24.783Z,99374.27
2023-01-28T23:50:55.734Z,99372.56
2023-01-28T23:53:23.602Z,99370.69
2023-01-28T23:55:51.146Z,99367.63
2023-01-28T23:58:33.526Z,99373.80
